sensor_id;sensor_type;location;lat;lon;timestamp;P1;durP1;ratioP1;P2;durP2;ratioP2
4563;SDS011;2294;51.818;8.484;2023-01-26T00:00:18;91.30;;;31.67;;
4563;SDS011;2294;51.818;8.484;2023-01-26T00:02:45;87.97;;;30.83;;
4563;SDS011;2294;51.818;8.484;2023-01-26T00:05:12;84.30;;;29.33;;
4563;SDS011;2294;51.818;8.484;2023-01-26T00:07:39;100.93;;;35.80;;
4563;SDS011;2294;51.818;8.484;2023-01-26T00:10:09;112.13;;;37.10;;
4563;SDS011;2294;51.818;8.484;2023-01-26T00:12:38;90.00;;;31.83;;
4563;SDS011;2294;51.818;8.484;2023-01-26T00:15:05;99.27;;;32.50;;
4563;SDS011;2294;51.818;8.484;2023-01-26T00:17:32;109.40;;;34.40;;
4563;SDS011;2294;51.818;8.484;2023-01-26T00:20:02;97.47;;;35.20;;
4563;SDS011;2294;51.818;8.484;2023-01-26T00:22:29;83.77;;;30.13;;
4563;SDS011;2294;51.818;8.484;2023-01-26T00:24:56;87.00;;;28.67;;
4563;SDS011;2294;51.818;8.484;2023-01-26T00:27:23;104.97;;;31.57;;
4563;SDS011;2294;51.818;8.484;2023-01-26T00:29:51;96.57;;;33.07;;
4563;SDS011;2294;51.818;8.484;2023-01-26T00:32:18;103.33;;;34.87;;
4563;SDS011;2294;51.818;8.484;2023-01-26T00:34:45;98.80;;;34.53;;
4563;SDS011;2294;51.818;8.484;2023-01-26T00:37:12;103.97;;;33.30;;
4563;SDS011;2294;51.818;8.484;2023-01-26T00:39:39;100.57;;;30.57;;
4563;SDS011;2294;51.818;8.484;2023-01-26T00:42:06;94.47;;;32.93;;
4563;SDS011;2294;51.818;8.484;2023-01-26T00:44:38;92.67;;;34.97;;
4563;SDS011;2294;51.818;8.484;2023-01-26T00:47:08;87.83;;;30.77;;
4563;SDS011;2294;51.818;8.484;2023-01-26T00:49:36;85.33;;;28.57;;
4563;SDS011;2294;51.818;8.484;2023-01-26T00:52:03;94.13;;;27.70;;
4563;SDS011;2294;51.818;8.484;2023-01-26T00:54:31;98.00;;;29.17;;
4563;SDS011;2294;51.818;8.484;2023-01-26T00:56:58;97.13;;;31.17;;
4563;SDS011;2294;51.818;8.484;2023-01-26T00:59:25;89.30;;;30.17;;
4563;SDS011;2294;51.818;8.484;2023-01-26T01:01:52;97.90;;;31.50;;
4563;SDS011;2294;51.818;8.484;2023-01-26T01:04:20;94.03;;;31.50;;
4563;SDS011;2294;51.818;8.484;2023-01-26T01:06:47;83.47;;;31.07;;
4563;SDS011;2294;51.818;8.484;2023-01-26T01:09:14;91.67;;;29.17;;
4563;SDS011;2294;51.818;8.484;2023-01-26T01:11:41;84.00;;;27.47;;
4563;SDS011;2294;51.818;8.484;2023-01-26T01:14:09;89.73;;;29.23;;
4563;SDS011;2294;51.818;8.484;2023-01-26T01:16:37;90.60;;;29.33;;
4563;SDS011;2294;51.818;8.484;2023-01-26T01:19:04;106.77;;;32.37;;
4563;SDS011;2294;51.818;8.484;2023-01-26T01:21:32;89.10;;;29.37;;
4563;SDS011;2294;51.818;8.484;2023-01-26T01:24:00;92.53;;;30.63;;
4563;SDS011;2294;51.818;8.484;2023-01-26T01:26:27;93.00;;;29.17;;
4563;SDS011;2294;51.818;8.484;2023-01-26T01:28:54;82.73;;;29.77;;
4563;SDS011;2294;51.818;8.484;2023-01-26T01:31:22;94.60;;;29.50;;
4563;SDS011;2294;51.818;8.484;2023-01-26T01:33:50;92.70;;;31.70;;
4563;SDS011;2294;51.818;8.484;2023-01-26T01:36:17;92.50;;;28.87;;
4563;SDS011;2294;51.818;8.484;2023-01-26T01:38:46;95.03;;;28.70;;
4563;SDS011;2294;51.818;8.484;2023-01-26T01:41:13;86.47;;;29.83;;
4563;SDS011;2294;51.818;8.484;2023-01-26T01:43:40;96.33;;;32.67;;
4563;SDS011;2294;51.818;8.484;2023-01-26T01:46:10;89.17;;;31.33;;
4563;SDS011;2294;51.818;8.484;2023-01-26T01:48:46;96.27;;;30.43;;
4563;SDS011;2294;51.818;8.484;2023-01-26T01:51:17;103.70;;;31.10;;
4563;SDS011;2294;51.818;8.484;2023-01-26T01:53:49;94.53;;;28.87;;
4563;SDS011;2294;51.818;8.484;2023-01-26T01:56:17;88.00;;;30.13;;
4563;SDS011;2294;51.818;8.484;2023-01-26T01:58:49;92.47;;;28.57;;
4563;SDS011;2294;51.818;8.484;2023-01-26T02:01:18;98.43;;;29.57;;
4563;SDS011;2294;51.818;8.484;2023-01-26T02:03:45;88.87;;;30.73;;
4563;SDS011;2294;51.818;8.484;2023-01-26T02:06:16;84.60;;;28.73;;
4563;SDS011;2294;51.818;8.484;2023-01-26T02:08:46;78.00;;;26.43;;
4563;SDS011;2294;51.818;8.484;2023-01-26T02:11:16;90.27;;;30.93;;
4563;SDS011;2294;51.818;8.484;2023-01-26T02:13:47;102.10;;;31.33;;
4563;SDS011;2294;51.818;8.484;2023-01-26T02:16:15;83.83;;;29.60;;
4563;SDS011;2294;51.818;8.484;2023-01-26T02:18:43;100.27;;;31.77;;
4563;SDS011;2294;51.818;8.484;2023-01-26T02:21:11;89.60;;;34.43;;
4563;SDS011;2294;51.818;8.484;2023-01-26T02:23:44;95.70;;;31.57;;
4563;SDS011;2294;51.818;8.484;2023-01-26T02:26:22;97.77;;;32.07;;
4563;SDS011;2294;51.818;8.484;2023-01-26T02:28:50;98.80;;;29.63;;
4563;SDS011;2294;51.818;8.484;2023-01-26T02:31:18;97.00;;;31.63;;
4563;SDS011;2294;51.818;8.484;2023-01-26T02:33:45;101.13;;;32.07;;
4563;SDS011;2294;51.818;8.484;2023-01-26T02:36:16;98.80;;;32.60;;
4563;SDS011;2294;51.818;8.484;2023-01-26T02:38:45;87.50;;;31.10;;
4563;SDS011;2294;51.818;8.484;2023-01-26T02:41:18;103.70;;;34.03;;
4563;SDS011;2294;51.818;8.484;2023-01-26T02:44:00;100.90;;;30.07;;
4563;SDS011;2294;51.818;8.484;2023-01-26T02:46:29;85.60;;;32.47;;
4563;SDS011;2294;51.818;8.484;2023-01-26T02:48:56;94.20;;;30.80;;
4563;SDS011;2294;51.818;8.484;2023-01-26T02:51:41;102.40;;;33.40;;
4563;SDS011;2294;51.818;8.484;2023-01-26T02:54:07;89.17;;;30.97;;
4563;SDS011;2294;51.818;8.484;2023-01-26T02:56:54;99.67;;;32.07;;
4563;SDS011;2294;51.818;8.484;2023-01-26T02:59:22;94.60;;;31.57;;
4563;SDS011;2294;51.818;8.484;2023-01-26T03:01:49;99.33;;;33.87;;
4563;SDS011;2294;51.818;8.484;2023-01-26T03:04:17;90.03;;;31.33;;
4563;SDS011;2294;51.818;8.484;2023-01-26T03:06:43;93.83;;;29.90;;
4563;SDS011;2294;51.818;8.484;2023-01-26T03:09:10;103.23;;;33.97;;
4563;SDS011;2294;51.818;8.484;2023-01-26T03:11:37;101.17;;;32.80;;
4563;SDS011;2294;51.818;8.484;2023-01-26T03:14:07;84.77;;;30.33;;
4563;SDS011;2294;51.818;8.484;2023-01-26T03:16:35;99.93;;;30.50;;
4563;SDS011;2294;51.818;8.484;2023-01-26T03:19:02;109.77;;;32.17;;
4563;SDS011;2294;51.818;8.484;2023-01-26T03:21:47;89.43;;;29.97;;
4563;SDS011;2294;51.818;8.484;2023-01-26T03:24:31;96.43;;;30.30;;
4563;SDS011;2294;51.818;8.484;2023-01-26T03:27:15;104.37;;;32.50;;
4563;SDS011;2294;51.818;8.484;2023-01-26T03:29:54;98.60;;;30.93;;
4563;SDS011;2294;51.818;8.484;2023-01-26T03:32:24;108.87;;;35.97;;
4563;SDS011;2294;51.818;8.484;2023-01-26T03:34:51;125.43;;;36.63;;
4563;SDS011;2294;51.818;8.484;2023-01-26T03:37:18;96.90;;;31.57;;
4563;SDS011;2294;51.818;8.484;2023-01-26T03:39:47;96.70;;;32.67;;
4563;SDS011;2294;51.818;8.484;2023-01-26T03:42:32;104.43;;;33.10;;
4563;SDS011;2294;51.818;8.484;2023-01-26T03:45:17;105.63;;;32.00;;
4563;SDS011;2294;51.818;8.484;2023-01-26T03:48:04;106.83;;;33.17;;
4563;SDS011;2294;51.818;8.484;2023-01-26T03:50:49;107.23;;;36.07;;
4563;SDS011;2294;51.818;8.484;2023-01-26T03:53:33;106.50;;;34.03;;
4563;SDS011;2294;51.818;8.484;2023-01-26T03:56:17;118.50;;;33.00;;
4563;SDS011;2294;51.818;8.484;2023-01-26T03:58:46;120.60;;;34.57;;
4563;SDS011;2294;51.818;8.484;2023-01-26T04:01:15;112.93;;;33.53;;
4563;SDS011;2294;51.818;8.484;2023-01-26T04:03:47;127.77;;;39.50;;
4563;SDS011;2294;51.818;8.484;2023-01-26T04:06:32;110.03;;;32.77;;
4563;SDS011;2294;51.818;8.484;2023-01-26T04:09:18;107.07;;;30.97;;
4563;SDS011;2294;51.818;8.484;2023-01-26T04:11:46;106.67;;;32.47;;
4563;SDS011;2294;51.818;8.484;2023-01-26T04:14:14;109.83;;;33.43;;
4563;SDS011;2294;51.818;8.484;2023-01-26T04:16:59;122.17;;;34.70;;
4563;SDS011;2294;51.818;8.484;2023-01-26T04:19:45;105.87;;;29.97;;
4563;SDS011;2294;51.818;8.484;2023-01-26T04:22:30;115.93;;;33.60;;
4563;SDS011;2294;51.818;8.484;2023-01-26T04:25:09;125.50;;;32.80;;
4563;SDS011;2294;51.818;8.484;2023-01-26T04:27:37;104.83;;;33.13;;
4563;SDS011;2294;51.818;8.484;2023-01-26T04:30:05;104.17;;;34.03;;
4563;SDS011;2294;51.818;8.484;2023-01-26T04:32:33;109.17;;;33.33;;
4563;SDS011;2294;51.818;8.484;2023-01-26T04:35:01;114.23;;;33.00;;
4563;SDS011;2294;51.818;8.484;2023-01-26T04:37:28;110.40;;;32.47;;
4563;SDS011;2294;51.818;8.484;2023-01-26T04:39:55;115.33;;;34.77;;
4563;SDS011;2294;51.818;8.484;2023-01-26T04:42:22;115.07;;;36.20;;
4563;SDS011;2294;51.818;8.484;2023-01-26T04:44:49;104.23;;;33.40;;
4563;SDS011;2294;51.818;8.484;2023-01-26T04:47:16;99.70;;;31.63;;
4563;SDS011;2294;51.818;8.484;2023-01-26T04:49:43;114.33;;;32.87;;
4563;SDS011;2294;51.818;8.484;2023-01-26T04:52:12;109.33;;;34.37;;
4563;SDS011;2294;51.818;8.484;2023-01-26T04:54:39;107.73;;;31.70;;
4563;SDS011;2294;51.818;8.484;2023-01-26T04:57:06;115.90;;;33.57;;
4563;SDS011;2294;51.818;8.484;2023-01-26T04:59:33;115.73;;;33.47;;
4563;SDS011;2294;51.818;8.484;2023-01-26T05:02:00;105.80;;;30.47;;
4563;SDS011;2294;51.818;8.484;2023-01-26T05:04:27;108.30;;;29.73;;
4563;SDS011;2294;51.818;8.484;2023-01-26T05:06:54;104.27;;;31.37;;
4563;SDS011;2294;51.818;8.484;2023-01-26T05:09:22;100.83;;;29.73;;
4563;SDS011;2294;51.818;8.484;2023-01-26T05:11:49;116.23;;;34.50;;
4563;SDS011;2294;51.818;8.484;2023-01-26T05:14:16;107.60;;;35.40;;
4563;SDS011;2294;51.818;8.484;2023-01-26T05:16:43;123.63;;;32.90;;
4563;SDS011;2294;51.818;8.484;2023-01-26T05:19:10;121.83;;;40.17;;
4563;SDS011;2294;51.818;8.484;2023-01-26T05:21:37;130.77;;;30.30;;
4563;SDS011;2294;51.818;8.484;2023-01-26T05:24:04;106.23;;;31.97;;
4563;SDS011;2294;51.818;8.484;2023-01-26T05:26:33;116.67;;;36.50;;
4563;SDS011;2294;51.818;8.484;2023-01-26T05:29:00;129.30;;;34.77;;
4563;SDS011;2294;51.818;8.484;2023-01-26T05:31:27;271.93;;;82.37;;
4563;SDS011;2294;51.818;8.484;2023-01-26T05:33:54;133.50;;;36.80;;
4563;SDS011;2294;51.818;8.484;2023-01-26T05:36:21;142.77;;;46.90;;
4563;SDS011;2294;51.818;8.484;2023-01-26T05:38:48;90.10;;;31.00;;
4563;SDS011;2294;51.818;8.484;2023-01-26T05:41:15;108.53;;;33.00;;
4563;SDS011;2294;51.818;8.484;2023-01-26T05:43:43;99.40;;;29.80;;
4563;SDS011;2294;51.818;8.484;2023-01-26T05:46:10;105.83;;;32.97;;
4563;SDS011;2294;51.818;8.484;2023-01-26T05:48:37;116.63;;;37.87;;
4563;SDS011;2294;51.818;8.484;2023-01-26T05:51:04;109.20;;;31.57;;
4563;SDS011;2294;51.818;8.484;2023-01-26T05:53:31;119.70;;;32.37;;
4563;SDS011;2294;51.818;8.484;2023-01-26T05:55:58;94.10;;;29.17;;
4563;SDS011;2294;51.818;8.484;2023-01-26T05:58:24;124.87;;;37.60;;
4563;SDS011;2294;51.818;8.484;2023-01-26T06:00:53;107.60;;;30.47;;
4563;SDS011;2294;51.818;8.484;2023-01-26T06:03:19;112.00;;;33.77;;
4563;SDS011;2294;51.818;8.484;2023-01-26T06:05:51;75.33;;;26.43;;
4563;SDS011;2294;51.818;8.484;2023-01-26T06:08:19;101.77;;;29.07;;
4563;SDS011;2294;51.818;8.484;2023-01-26T06:10:46;87.97;;;29.70;;
4563;SDS011;2294;51.818;8.484;2023-01-26T06:13:12;87.40;;;29.67;;
4563;SDS011;2294;51.818;8.484;2023-01-26T06:15:39;90.77;;;31.60;;
4563;SDS011;2294;51.818;8.484;2023-01-26T06:18:08;105.03;;;31.30;;
4563;SDS011;2294;51.818;8.484;2023-01-26T06:20:35;82.80;;;24.37;;
4563;SDS011;2294;51.818;8.484;2023-01-26T06:23:01;111.50;;;32.60;;
4563;SDS011;2294;51.818;8.484;2023-01-26T06:25:29;105.93;;;32.70;;
4563;SDS011;2294;51.818;8.484;2023-01-26T06:27:56;94.60;;;29.67;;
4563;SDS011;2294;51.818;8.484;2023-01-26T06:30:23;96.57;;;30.60;;
4563;SDS011;2294;51.818;8.484;2023-01-26T06:32:50;78.93;;;27.47;;
4563;SDS011;2294;51.818;8.484;2023-01-26T06:35:19;99.47;;;28.47;;
4563;SDS011;2294;51.818;8.484;2023-01-26T06:37:46;89.73;;;29.27;;
4563;SDS011;2294;51.818;8.484;2023-01-26T06:40:14;83.47;;;26.87;;
4563;SDS011;2294;51.818;8.484;2023-01-26T06:42:45;105.00;;;32.93;;
4563;SDS011;2294;51.818;8.484;2023-01-26T06:45:12;91.57;;;24.67;;
4563;SDS011;2294;51.818;8.484;2023-01-26T06:47:43;86.97;;;28.60;;
4563;SDS011;2294;51.818;8.484;2023-01-26T06:50:11;89.53;;;28.07;;
4563;SDS011;2294;51.818;8.484;2023-01-26T06:52:41;103.90;;;32.07;;
4563;SDS011;2294;51.818;8.484;2023-01-26T06:55:14;70.73;;;26.40;;
4563;SDS011;2294;51.818;8.484;2023-01-26T06:57:45;95.53;;;29.57;;
4563;SDS011;2294;51.818;8.484;2023-01-26T07:00:12;100.20;;;28.57;;
4563;SDS011;2294;51.818;8.484;2023-01-26T07:02:40;161.50;;;49.63;;
4563;SDS011;2294;51.818;8.484;2023-01-26T07:05:07;90.33;;;33.57;;
4563;SDS011;2294;51.818;8.484;2023-01-26T07:07:35;95.27;;;28.43;;
4563;SDS011;2294;51.818;8.484;2023-01-26T07:10:03;100.03;;;30.07;;
4563;SDS011;2294;51.818;8.484;2023-01-26T07:12:38;101.40;;;29.47;;
4563;SDS011;2294;51.818;8.484;2023-01-26T07:15:06;90.43;;;27.00;;
4563;SDS011;2294;51.818;8.484;2023-01-26T07:17:33;91.70;;;28.53;;
4563;SDS011;2294;51.818;8.484;2023-01-26T07:20:00;83.17;;;27.70;;
4563;SDS011;2294;51.818;8.484;2023-01-26T07:22:27;83.97;;;29.77;;
4563;SDS011;2294;51.818;8.484;2023-01-26T07:24:54;88.27;;;27.80;;
4563;SDS011;2294;51.818;8.484;2023-01-26T07:27:22;88.87;;;27.10;;
4563;SDS011;2294;51.818;8.484;2023-01-26T07:29:50;95.77;;;27.90;;
4563;SDS011;2294;51.818;8.484;2023-01-26T07:32:16;95.93;;;27.47;;
4563;SDS011;2294;51.818;8.484;2023-01-26T07:34:43;91.47;;;26.67;;
4563;SDS011;2294;51.818;8.484;2023-01-26T07:37:10;90.13;;;30.70;;
4563;SDS011;2294;51.818;8.484;2023-01-26T07:39:37;72.17;;;24.77;;
4563;SDS011;2294;51.818;8.484;2023-01-26T07:42:04;101.10;;;33.83;;
4563;SDS011;2294;51.818;8.484;2023-01-26T07:44:32;84.00;;;25.70;;
4563;SDS011;2294;51.818;8.484;2023-01-26T07:46:59;96.50;;;27.10;;
4563;SDS011;2294;51.818;8.484;2023-01-26T07:49:26;77.30;;;24.17;;
4563;SDS011;2294;51.818;8.484;2023-01-26T07:51:52;81.80;;;28.43;;
4563;SDS011;2294;51.818;8.484;2023-01-26T07:54:20;83.17;;;26.97;;
4563;SDS011;2294;51.818;8.484;2023-01-26T07:56:49;88.27;;;28.33;;
4563;SDS011;2294;51.818;8.484;2023-01-26T07:59:16;76.47;;;25.93;;
4563;SDS011;2294;51.818;8.484;2023-01-26T08:01:45;91.27;;;29.60;;
4563;SDS011;2294;51.818;8.484;2023-01-26T08:04:14;96.27;;;30.37;;
4563;SDS011;2294;51.818;8.484;2023-01-26T08:06:41;79.17;;;26.40;;
4563;SDS011;2294;51.818;8.484;2023-01-26T08:09:08;75.67;;;24.23;;
4563;SDS011;2294;51.818;8.484;2023-01-26T08:11:35;78.60;;;25.53;;
4563;SDS011;2294;51.818;8.484;2023-01-26T08:14:02;79.13;;;25.90;;
4563;SDS011;2294;51.818;8.484;2023-01-26T08:16:29;83.00;;;25.53;;
4563;SDS011;2294;51.818;8.484;2023-01-26T08:18:57;86.23;;;26.10;;
4563;SDS011;2294;51.818;8.484;2023-01-26T08:21:24;82.23;;;26.80;;
4563;SDS011;2294;51.818;8.484;2023-01-26T08:23:51;75.33;;;25.10;;
4563;SDS011;2294;51.818;8.484;2023-01-26T08:26:18;73.03;;;24.57;;
4563;SDS011;2294;51.818;8.484;2023-01-26T08:28:46;76.00;;;23.83;;
4563;SDS011;2294;51.818;8.484;2023-01-26T08:31:14;87.80;;;26.17;;
4563;SDS011;2294;51.818;8.484;2023-01-26T08:33:44;90.70;;;27.37;;
4563;SDS011;2294;51.818;8.484;2023-01-26T08:36:14;84.83;;;24.90;;
4563;SDS011;2294;51.818;8.484;2023-01-26T08:38:41;91.60;;;25.07;;
4563;SDS011;2294;51.818;8.484;2023-01-26T08:41:09;106.50;;;28.77;;
4563;SDS011;2294;51.818;8.484;2023-01-26T08:43:36;94.33;;;27.30;;
4563;SDS011;2294;51.818;8.484;2023-01-26T08:46:04;100.73;;;30.60;;
4563;SDS011;2294;51.818;8.484;2023-01-26T08:48:31;84.73;;;26.47;;
4563;SDS011;2294;51.818;8.484;2023-01-26T08:50:58;87.40;;;25.97;;
4563;SDS011;2294;51.818;8.484;2023-01-26T08:53:30;84.20;;;26.67;;
4563;SDS011;2294;51.818;8.484;2023-01-26T08:55:59;79.17;;;26.20;;
4563;SDS011;2294;51.818;8.484;2023-01-26T08:58:26;88.57;;;27.00;;
4563;SDS011;2294;51.818;8.484;2023-01-26T09:00:54;101.60;;;29.17;;
4563;SDS011;2294;51.818;8.484;2023-01-26T09:03:21;99.90;;;28.60;;
4563;SDS011;2294;51.818;8.484;2023-01-26T09:05:47;94.27;;;26.47;;
4563;SDS011;2294;51.818;8.484;2023-01-26T09:08:14;96.87;;;30.23;;
4563;SDS011;2294;51.818;8.484;2023-01-26T09:10:43;92.20;;;28.10;;
4563;SDS011;2294;51.818;8.484;2023-01-26T09:13:10;108.57;;;30.70;;
4563;SDS011;2294;51.818;8.484;2023-01-26T09:15:37;100.50;;;30.50;;
4563;SDS011;2294;51.818;8.484;2023-01-26T09:18:04;95.73;;;26.30;;
4563;SDS011;2294;51.818;8.484;2023-01-26T09:20:31;87.40;;;27.10;;
4563;SDS011;2294;51.818;8.484;2023-01-26T09:22:58;90.57;;;26.47;;
4563;SDS011;2294;51.818;8.484;2023-01-26T09:25:24;83.40;;;23.93;;
4563;SDS011;2294;51.818;8.484;2023-01-26T09:27:53;99.63;;;26.63;;
4563;SDS011;2294;51.818;8.484;2023-01-26T09:30:20;109.53;;;29.77;;
4563;SDS011;2294;51.818;8.484;2023-01-26T09:32:48;94.57;;;27.67;;
4563;SDS011;2294;51.818;8.484;2023-01-26T09:35:15;94.67;;;29.70;;
4563;SDS011;2294;51.818;8.484;2023-01-26T09:37:43;88.27;;;27.23;;
4563;SDS011;2294;51.818;8.484;2023-01-26T09:40:13;82.53;;;25.20;;
4563;SDS011;2294;51.818;8.484;2023-01-26T09:42:45;103.37;;;28.80;;
4563;SDS011;2294;51.818;8.484;2023-01-26T09:45:25;83.07;;;24.97;;
4563;SDS011;2294;51.818;8.484;2023-01-26T09:48:06;96.93;;;28.70;;
4563;SDS011;2294;51.818;8.484;2023-01-26T09:50:39;88.73;;;27.17;;
4563;SDS011;2294;51.818;8.484;2023-01-26T09:53:11;97.17;;;28.70;;
4563;SDS011;2294;51.818;8.484;2023-01-26T09:55:44;91.10;;;25.90;;
4563;SDS011;2294;51.818;8.484;2023-01-26T09:58:14;90.50;;;25.40;;
4563;SDS011;2294;51.818;8.484;2023-01-26T10:00:47;99.27;;;30.30;;
4563;SDS011;2294;51.818;8.484;2023-01-26T10:03:20;82.70;;;27.87;;
4563;SDS011;2294;51.818;8.484;2023-01-26T10:05:53;98.10;;;29.80;;
4563;SDS011;2294;51.818;8.484;2023-01-26T10:08:26;82.50;;;26.53;;
4563;SDS011;2294;51.818;8.484;2023-01-26T10:10:56;81.67;;;25.77;;
4563;SDS011;2294;51.818;8.484;2023-01-26T10:13:27;73.73;;;23.80;;
4563;SDS011;2294;51.818;8.484;2023-01-26T10:15:56;95.63;;;26.40;;
4563;SDS011;2294;51.818;8.484;2023-01-26T10:18:26;85.73;;;26.70;;
4563;SDS011;2294;51.818;8.484;2023-01-26T10:20:57;71.03;;;24.27;;
4563;SDS011;2294;51.818;8.484;2023-01-26T10:23:27;84.90;;;23.77;;
4563;SDS011;2294;51.818;8.484;2023-01-26T10:25:55;68.10;;;21.67;;
4563;SDS011;2294;51.818;8.484;2023-01-26T10:28:29;76.80;;;26.27;;
4563;SDS011;2294;51.818;8.484;2023-01-26T10:30:59;69.30;;;23.87;;
4563;SDS011;2294;51.818;8.484;2023-01-26T10:33:29;72.87;;;25.00;;
4563;SDS011;2294;51.818;8.484;2023-01-26T10:35:58;76.57;;;24.40;;
4563;SDS011;2294;51.818;8.484;2023-01-26T10:38:26;73.10;;;26.40;;
4563;SDS011;2294;51.818;8.484;2023-01-26T10:41:08;79.83;;;23.27;;
4563;SDS011;2294;51.818;8.484;2023-01-26T10:43:52;66.60;;;21.43;;
4563;SDS011;2294;51.818;8.484;2023-01-26T10:46:29;68.80;;;22.97;;
4563;SDS011;2294;51.818;8.484;2023-01-26T10:48:58;57.70;;;19.07;;
4563;SDS011;2294;51.818;8.484;2023-01-26T10:51:27;61.73;;;21.67;;
4563;SDS011;2294;51.818;8.484;2023-01-26T10:56:49;75.43;;;23.03;;
4563;SDS011;2294;51.818;8.484;2023-01-26T10:59:25;72.07;;;21.20;;
4563;SDS011;2294;51.818;8.484;2023-01-26T11:01:55;66.77;;;21.97;;
4563;SDS011;2294;51.818;8.484;2023-01-26T11:04:24;72.97;;;21.97;;
4563;SDS011;2294;51.818;8.484;2023-01-26T11:06:52;75.07;;;24.23;;
4563;SDS011;2294;51.818;8.484;2023-01-26T11:09:19;73.40;;;21.97;;
4563;SDS011;2294;51.818;8.484;2023-01-26T11:11:53;76.47;;;24.10;;
4563;SDS011;2294;51.818;8.484;2023-01-26T11:14:27;71.10;;;21.53;;
4563;SDS011;2294;51.818;8.484;2023-01-26T11:19:51;66.63;;;20.90;;
4563;SDS011;2294;51.818;8.484;2023-01-26T11:22:36;63.20;;;20.57;;
4563;SDS011;2294;51.818;8.484;2023-01-26T11:25:11;66.87;;;19.93;;
4563;SDS011;2294;51.818;8.484;2023-01-26T11:27:45;66.83;;;20.40;;
4563;SDS011;2294;51.818;8.484;2023-01-26T11:33:24;98.60;;;32.47;;
4563;SDS011;2294;51.818;8.484;2023-01-26T11:35:59;58.93;;;22.20;;
4563;SDS011;2294;51.818;8.484;2023-01-26T11:38:37;81.13;;;21.40;;
4563;SDS011;2294;51.818;8.484;2023-01-26T11:41:27;64.97;;;25.37;;
4563;SDS011;2294;51.818;8.484;2023-01-26T11:47:07;54.80;;;19.20;;
4563;SDS011;2294;51.818;8.484;2023-01-26T11:49:50;70.17;;;22.27;;
4563;SDS011;2294;51.818;8.484;2023-01-26T11:52:42;74.90;;;22.00;;
4563;SDS011;2294;51.818;8.484;2023-01-26T11:55:17;62.63;;;23.00;;
4563;SDS011;2294;51.818;8.484;2023-01-26T11:57:57;72.47;;;27.10;;
4563;SDS011;2294;51.818;8.484;2023-01-26T12:00:35;82.17;;;30.27;;
4563;SDS011;2294;51.818;8.484;2023-01-26T12:03:13;77.03;;;25.07;;
4563;SDS011;2294;51.818;8.484;2023-01-26T12:05:45;97.50;;;29.97;;
4563;SDS011;2294;51.818;8.484;2023-01-26T12:08:18;56.23;;;20.30;;
4563;SDS011;2294;51.818;8.484;2023-01-26T12:10:50;71.93;;;26.37;;
4563;SDS011;2294;51.818;8.484;2023-01-26T12:13:46;68.23;;;22.27;;
4563;SDS011;2294;51.818;8.484;2023-01-26T12:16:28;56.67;;;20.20;;
4563;SDS011;2294;51.818;8.484;2023-01-26T12:19:04;60.87;;;21.07;;
4563;SDS011;2294;51.818;8.484;2023-01-26T12:21:44;165.17;;;51.33;;
4563;SDS011;2294;51.818;8.484;2023-01-26T12:24:13;66.10;;;24.17;;
4563;SDS011;2294;51.818;8.484;2023-01-26T12:26:46;72.77;;;26.80;;
4563;SDS011;2294;51.818;8.484;2023-01-26T12:29:18;52.07;;;20.30;;
4563;SDS011;2294;51.818;8.484;2023-01-26T12:31:51;45.03;;;20.07;;
4563;SDS011;2294;51.818;8.484;2023-01-26T12:34:24;51.77;;;18.87;;
4563;SDS011;2294;51.818;8.484;2023-01-26T12:36:56;54.13;;;21.27;;
4563;SDS011;2294;51.818;8.484;2023-01-26T12:39:44;52.17;;;16.37;;
4563;SDS011;2294;51.818;8.484;2023-01-26T12:42:16;50.17;;;20.37;;
4563;SDS011;2294;51.818;8.484;2023-01-26T12:44:51;49.23;;;18.80;;
4563;SDS011;2294;51.818;8.484;2023-01-26T12:47:21;50.93;;;17.97;;
4563;SDS011;2294;51.818;8.484;2023-01-26T12:49:57;50.40;;;17.77;;
4563;SDS011;2294;51.818;8.484;2023-01-26T12:52:29;49.37;;;17.73;;
4563;SDS011;2294;51.818;8.484;2023-01-26T12:55:02;50.40;;;19.27;;
4563;SDS011;2294;51.818;8.484;2023-01-26T12:57:37;48.20;;;19.77;;
4563;SDS011;2294;51.818;8.484;2023-01-26T13:00:16;48.77;;;19.47;;
4563;SDS011;2294;51.818;8.484;2023-01-26T13:02:47;40.27;;;15.87;;
4563;SDS011;2294;51.818;8.484;2023-01-26T13:05:24;42.50;;;16.27;;
4563;SDS011;2294;51.818;8.484;2023-01-26T13:07:53;47.37;;;18.97;;
4563;SDS011;2294;51.818;8.484;2023-01-26T13:10:22;45.63;;;17.50;;
4563;SDS011;2294;51.818;8.484;2023-01-26T13:13:25;41.73;;;14.07;;
4563;SDS011;2294;51.818;8.484;2023-01-26T13:16:09;46.27;;;18.40;;
4563;SDS011;2294;51.818;8.484;2023-01-26T13:18:56;38.60;;;14.50;;
4563;SDS011;2294;51.818;8.484;2023-01-26T13:21:26;51.50;;;16.50;;
4563;SDS011;2294;51.818;8.484;2023-01-26T13:23:54;41.27;;;13.40;;
4563;SDS011;2294;51.818;8.484;2023-01-26T13:29:29;32.70;;;13.40;;
4563;SDS011;2294;51.818;8.484;2023-01-26T13:31:59;30.30;;;12.67;;
4563;SDS011;2294;51.818;8.484;2023-01-26T13:34:47;54.33;;;15.57;;
4563;SDS011;2294;51.818;8.484;2023-01-26T13:37:20;35.50;;;14.27;;
4563;SDS011;2294;51.818;8.484;2023-01-26T13:39:55;38.90;;;14.60;;
4563;SDS011;2294;51.818;8.484;2023-01-26T13:42:26;33.17;;;13.67;;
4563;SDS011;2294;51.818;8.484;2023-01-26T13:44:59;41.00;;;13.37;;
4563;SDS011;2294;51.818;8.484;2023-01-26T13:47:36;36.17;;;14.17;;
4563;SDS011;2294;51.818;8.484;2023-01-26T13:50:20;41.03;;;18.40;;
4563;SDS011;2294;51.818;8.484;2023-01-26T13:52:49;34.20;;;12.10;;
4563;SDS011;2294;51.818;8.484;2023-01-26T13:55:20;36.37;;;13.10;;
4563;SDS011;2294;51.818;8.484;2023-01-26T13:58:02;34.13;;;14.07;;
4563;SDS011;2294;51.818;8.484;2023-01-26T14:00:35;53.53;;;25.97;;
4563;SDS011;2294;51.818;8.484;2023-01-26T14:03:02;35.27;;;14.77;;
4563;SDS011;2294;51.818;8.484;2023-01-26T14:05:29;37.37;;;14.63;;
4563;SDS011;2294;51.818;8.484;2023-01-26T14:07:59;39.80;;;14.90;;
4563;SDS011;2294;51.818;8.484;2023-01-26T14:10:27;36.63;;;13.27;;
4563;SDS011;2294;51.818;8.484;2023-01-26T14:12:54;34.10;;;13.53;;
4563;SDS011;2294;51.818;8.484;2023-01-26T14:15:23;35.10;;;12.37;;
4563;SDS011;2294;51.818;8.484;2023-01-26T14:17:54;30.30;;;13.40;;
4563;SDS011;2294;51.818;8.484;2023-01-26T14:20:23;31.50;;;13.27;;
4563;SDS011;2294;51.818;8.484;2023-01-26T14:23:07;32.03;;;14.13;;
4563;SDS011;2294;51.818;8.484;2023-01-26T14:25:38;30.90;;;13.10;;
4563;SDS011;2294;51.818;8.484;2023-01-26T14:28:10;32.47;;;12.57;;
4563;SDS011;2294;51.818;8.484;2023-01-26T14:30:40;27.80;;;12.50;;
4563;SDS011;2294;51.818;8.484;2023-01-26T14:33:10;37.87;;;13.90;;
4563;SDS011;2294;51.818;8.484;2023-01-26T14:35:38;34.23;;;13.97;;
4563;SDS011;2294;51.818;8.484;2023-01-26T14:38:13;27.93;;;12.30;;
4563;SDS011;2294;51.818;8.484;2023-01-26T14:40:45;30.87;;;13.77;;
4563;SDS011;2294;51.818;8.484;2023-01-26T14:43:13;37.23;;;12.17;;
4563;SDS011;2294;51.818;8.484;2023-01-26T14:45:42;32.33;;;12.60;;
4563;SDS011;2294;51.818;8.484;2023-01-26T14:48:13;28.97;;;11.90;;
4563;SDS011;2294;51.818;8.484;2023-01-26T14:50:43;31.77;;;13.17;;
4563;SDS011;2294;51.818;8.484;2023-01-26T14:53:15;24.73;;;10.50;;
4563;SDS011;2294;51.818;8.484;2023-01-26T14:55:44;26.70;;;10.90;;
4563;SDS011;2294;51.818;8.484;2023-01-26T14:58:14;46.43;;;21.03;;
4563;SDS011;2294;51.818;8.484;2023-01-26T15:00:46;31.30;;;13.20;;
4563;SDS011;2294;51.818;8.484;2023-01-26T15:03:17;63.80;;;24.33;;
4563;SDS011;2294;51.818;8.484;2023-01-26T15:05:58;31.90;;;14.50;;
4563;SDS011;2294;51.818;8.484;2023-01-26T15:08:31;31.67;;;12.37;;
4563;SDS011;2294;51.818;8.484;2023-01-26T15:11:00;26.60;;;11.50;;
4563;SDS011;2294;51.818;8.484;2023-01-26T15:13:46;26.77;;;11.80;;
4563;SDS011;2294;51.818;8.484;2023-01-26T15:16:17;38.97;;;15.20;;
4563;SDS011;2294;51.818;8.484;2023-01-26T15:18:45;37.87;;;11.67;;